»·PEaware :: N132WM KSNA-KBUR

N132WM :: KSNA-KBUR

FLIGHT INFORMATION

Flight Status: Arrived
Operator: Privately registered:
United States
More flights under this callsign
Pilot: Chad H. (22814)
Aircraft: ECLIPSE 500
(EA50)
More flights by this aircraft type
Origin: KSNA John Wayne-Orange Co
United States
Destination: KBUR Bob Hope-Burbank
United States
More flights between these airports :: More routes between these airports
Route: +SLI V23 LAX LAX316 SILEX
File this flight plan on PilotEdge
Remarks: I-3
Altitude:
(Current/Filed)
6,000ft
Speed:
(Current/Filed)
170kts
Departed: 23-Jan-19 09:12 AM
Arrived: 23-Jan-19 09:40 AM
Distance/Time
Traveled:
1nm/0:28
Distance/Time
To Go:
Arrived

Flight Plot

Page will automatically refresh every two minutes.


Map Options




Map Legend


Flown Route
Filed Route
Departure Airport
Arrival Airport
Navaid (VOR, NDB)
Fix

Horizontal Profiles

Position Reports

Time Latitude Longitude Heading Altitude Ground
Speed
23-Jan-19 08:56 33.665674 -117.873564 40 59ft 0kts
23-Jan-19 08:57 33.665674 -117.873564 40 59ft 0kts
23-Jan-19 08:58 33.665674 -117.873564 40 59ft 0kts
23-Jan-19 08:59 33.665674 -117.873564 40 59ft 0kts
23-Jan-19 09:00 33.665674 -117.873564 40 59ft 0kts
23-Jan-19 09:01 33.665674 -117.873564 40 59ft 0kts
23-Jan-19 09:02 33.665674 -117.873564 40 59ft 0kts
23-Jan-19 09:04 33.665674 -117.873564 40 59ft 0kts
23-Jan-19 09:04 33.665674 -117.873564 40 59ft 0kts
23-Jan-19 09:05 33.665674 -117.873564 40 59ft 0kts
23-Jan-19 09:06 33.665674 -117.873564 40 59ft 0kts
23-Jan-19 09:07 33.667167 -117.872901 36 59ft 20kts
23-Jan-19 09:08 33.673198 -117.867112 37 59ft 31kts
23-Jan-19 09:09 33.680525 -117.862893 321 59ft 14kts
23-Jan-19 09:10 33.680992 -117.863824 297 59ft 16kts
23-Jan-19 09:11 33.677779 -117.867471 208 59ft 85kts
23-Jan-19 09:12 33.639171 -117.877196 186 1562ft 180kts
23-Jan-19 09:13 33.586056 -117.884733 186 3379ft 202kts
23-Jan-19 09:14 33.529902 -117.892613 186 5281ft 200kts
23-Jan-19 09:15 33.470502 -117.900859 186 5999ft 227kts
23-Jan-19 09:16 33.458995 -117.947420 341 6002ft 207kts
23-Jan-19 09:17 33.503814 -117.989511 318 6000ft 208kts
23-Jan-19 09:18 33.547068 -118.035982 320 5999ft 208kts
23-Jan-19 09:19 33.590981 -118.081472 320 5999ft 208kts
23-Jan-19 09:20 33.634959 -118.126533 321 6001ft 208kts
23-Jan-19 09:21 33.679090 -118.171630 321 6003ft 207kts
23-Jan-19 09:22 33.723970 -118.217500 321 6003ft 207kts
23-Jan-19 09:23 33.768405 -118.262954 321 5994ft 208kts
23-Jan-19 09:24 33.812507 -118.308126 321 5989ft 208kts
23-Jan-19 09:25 33.856727 -118.353491 321 5989ft 208kts
23-Jan-19 09:26 33.892575 -118.390335 321 5989ft 189kts
23-Jan-19 09:27 33.932942 -118.431672 326 5984ft 189kts
23-Jan-19 09:28 33.980588 -118.463770 333 5084ft 209kts
23-Jan-19 09:29 34.029238 -118.496292 332 3445ft 180kts
23-Jan-19 09:30 34.071300 -118.524474 333 3981ft 186kts
23-Jan-19 09:31 34.112745 -118.552297 333 3983ft 170kts
23-Jan-19 09:32 34.149724 -118.577134 334 3980ft 137kts
23-Jan-19 09:33 34.184798 -118.587165 49 3975ft 138kts
23-Jan-19 09:34 34.200027 -118.539744 89 2986ft 153kts
23-Jan-19 09:35 34.199365 -118.499217 88 2885ft 119kts
23-Jan-19 09:36 34.198908 -118.456713 89 2239ft 121kts
23-Jan-19 09:37 34.198475 -118.417849 89 1623ft 118kts
23-Jan-19 09:38 34.198083 -118.383786 89 1067ft 87kts
23-Jan-19 09:39 34.198078 -118.357574 12 779ft 22kts
23-Jan-19 09:40 34.198560 -118.357946 352 779ft 0kts
23-Jan-19 09:41 34.199696 -118.358723 294 779ft 10kts
23-Jan-19 09:42 34.199849 -118.359335 277 779ft 0kts
23-Jan-19 09:43 33.665674 -117.873564 40 59ft 0kts
23-Jan-19 09:45 33.665674 -117.873564 40 59ft 0kts
23-Jan-19 09:45 33.665674 -117.873564 40 59ft 0kts
23-Jan-19 09:46 33.665674 -117.873564 40 59ft 0kts
23-Jan-19 09:47 33.665674 -117.873564 40 59ft 0kts

Navigation Log

Ident Type
Flight plan parsing failed, navigation log unavailable